Jasper, Canada
Current Conditions -  °F | °C
As of 1:00 PM on Thursday 29 Jan 2015 (Local Time) from CYET Reporting Station
Few Clouds Few Clouds  
Wind Chill: 27°   Ceiling: Unl
Heat Index: 32°   Visibility: 9mi
Dew Point: 23°   Wind: 5mph
Humidity: 69%   Direction: 240°WSW
Pressure: 30.15"   Gusts: NA
Location:  52.87°N, 118.08°W
Report Text: CYET 292000Z AUTO 24004KT 220V290 9SM FEW085 M00/M05 A3015 RMK SLP258
Loading
Personal Weather Stations






























Interactive Weather Map New forecast layout! Learn more

10-Day Weather Forecast

Advertisements
Track Severe Weather on mobile